Time;durP1;ratioP1;P1;durP2;ratioP2;P2;SDS_P1;SDS_P2;PMS_P1;PMS_P2;Temp;Humidity;BMP_temperature;BMP_pressure;BME280_temperature;BME280_humidity;BME280_pressure;Samples;Min_cycle;Max_cycle;Signal;HPM_P1;HPM_P2
2022/01/08 00:01:09;;;;;;;16.10;7.25;;;;;;;-1.81;63.86;100158.30;1774792;79;21294;-38
2022/01/08 00:03:32;;;;;;;9.50;6.80;;;;;;;-1.81;63.92;100157.77;1777033;79;21527;-38
2022/01/08 00:05:59;;;;;;;12.95;6.97;;;;;;;-1.80;64.04;100155.39;1783567;79;21487;-38
2022/01/08 00:08:26;;;;;;;10.15;6.67;;;;;;;-1.78;63.99;100160.42;1784760;80;21889;-39
2022/01/08 00:10:53;;;;;;;12.23;7.08;;;;;;;-1.74;63.96;100158.07;1792827;79;21541;-38
2022/01/08 00:13:21;;;;;;;10.72;6.60;;;;;;;-1.71;63.82;100154.88;1791860;79;21149;-38
2022/01/08 00:15:48;;;;;;;10.48;6.65;;;;;;;-1.73;63.76;100156.98;1802603;78;21386;-38
2022/01/08 00:18:15;;;;;;;11.83;7.08;;;;;;;-1.73;63.73;100156.46;1800443;79;20992;-38
2022/01/08 00:20:42;;;;;;;9.35;6.08;;;;;;;-1.72;63.62;100156.73;1793985;79;21650;-38
2022/01/08 00:23:11;;;;;;;10.80;6.80;;;;;;;-1.77;63.81;100159.37;1787801;79;20978;-39
2022/01/08 00:25:38;;;;;;;11.53;6.67;;;;;;;-1.78;63.87;100153.78;1789993;79;21579;-38
2022/01/08 00:28:05;;;;;;;10.35;6.72;;;;;;;-1.79;64.07;100158.81;1803814;79;20974;-38
2022/01/08 00:30:32;;;;;;;10.80;6.20;;;;;;;-1.74;63.90;100154.86;1802855;79;21029;-38
2022/01/08 00:32:59;;;;;;;9.63;6.10;;;;;;;-1.69;63.89;100154.88;1790437;79;21012;-38
2022/01/08 00:35:27;;;;;;;10.72;5.95;;;;;;;-1.62;63.78;100138.17;1781373;79;21048;-38
2022/01/08 00:37:54;;;;;;;9.25;6.00;;;;;;;-1.55;63.62;100137.95;1795213;79;21771;-38
2022/01/08 00:40:21;;;;;;;9.28;5.78;;;;;;;-1.51;63.48;100142.48;1783621;79;21550;-38
2022/01/08 00:42:48;;;;;;;12.30;6.17;;;;;;;-1.50;63.32;100138.73;1778017;80;21000;-39
2022/01/08 00:45:15;;;;;;;12.95;6.87;;;;;;;-1.52;63.35;100132.90;1777012;79;21041;-39
2022/01/08 00:47:41;;;;;;;9.40;6.20;;;;;;;-1.48;63.36;100139.29;1781014;80;21515;-38
2022/01/08 00:50:10;;;;;;;10.30;6.08;;;;;;;-1.46;63.18;100129.20;1778813;80;21125;-38
2022/01/08 00:52:36;;;;;;;9.93;6.35;;;;;;;-1.40;62.75;100128.66;1781072;80;20927;-38
2022/01/08 00:55:04;;;;;;;9.70;6.28;;;;;;;-1.39;62.56;100129.73;1781364;80;20990;-38
2022/01/08 00:57:31;;;;;;;10.98;6.28;;;;;;;-1.39;62.28;100125.75;1780234;80;21028;-38
2022/01/08 00:59:58;;;;;;;11.18;6.08;;;;;;;-1.44;62.26;100117.76;1781282;80;21085;-38
2022/01/08 01:02:25;;;;;;;9.53;5.80;;;;;;;-1.41;62.20;100122.57;1780191;80;21528;-38
2022/01/08 01:04:51;;;;;;;12.98;7.30;;;;;;;-1.41;61.82;100135.87;1780620;80;21078;-38
2022/01/08 01:07:18;;;;;;;10.63;6.90;;;;;;;-1.53;61.95;100142.45;1779270;79;21007;-38
2022/01/08 01:09:45;;;;;;;10.23;6.50;;;;;;;-1.65;62.29;100133.39;1776172;80;20998;-38
2022/01/08 01:12:13;;;;;;;12.07;7.28;;;;;;;-1.62;62.62;100130.20;1780494;80;21053;-38
2022/01/08 01:14:39;;;;;;;11.60;6.50;;;;;;;-1.58;62.52;100137.92;1779437;80;21168;-38
2022/01/08 01:17:06;;;;;;;13.32;7.65;;;;;;;-1.64;62.43;100161.55;1768186;80;21339;-39
2022/01/08 01:19:35;;;;;;;11.68;7.53;;;;;;;-1.76;62.58;100145.03;1766717;79;20893;-39
2022/01/08 01:22:04;;;;;;;11.33;6.70;;;;;;;-1.93;63.14;100145.20;1759917;79;20997;-38
2022/01/08 01:24:32;;;;;;;11.10;6.83;;;;;;;-1.96;63.49;100156.88;1780304;80;21536;-38
2022/01/08 01:29:47;;;;;;;13.15;7.97;;;;;;;-2.07;63.94;100148.58;1780105;80;20922;-38
2022/01/08 01:48:23;;;;;;;15.35;7.53;;;;;;;-1.82;63.83;100139.41;1784594;79;21006;-38
2022/01/08 01:50:50;;;;;;;11.70;6.95;;;;;;;-1.77;63.59;100133.59;1780231;80;20989;-38
2022/01/08 01:53:17;;;;;;;13.35;7.42;;;;;;;-1.74;63.44;100122.95;1780237;80;21126;-38
2022/01/08 01:55:44;;;;;;;10.28;6.97;;;;;;;-1.64;63.06;100124.33;1780889;80;20972;-38
2022/01/08 01:58:10;;;;;;;12.63;6.97;;;;;;;-1.57;62.83;100123.58;1780737;80;21052;-38
2022/01/08 02:00:37;;;;;;;10.08;6.67;;;;;;;-1.50;62.57;100118.02;1780635;80;21044;-38
2022/01/08 02:03:04;;;;;;;11.22;6.90;;;;;;;-1.43;62.53;100125.20;1769324;79;21025;-39
2022/01/08 02:05:31;;;;;;;10.90;6.78;;;;;;;-1.36;62.29;100114.61;1770580;80;21925;-38
2022/01/08 02:07:58;;;;;;;9.58;6.42;;;;;;;-1.29;62.01;100117.00;1770837;80;21064;-38
2022/01/08 02:10:25;;;;;;;10.20;7.05;;;;;;;-1.24;61.71;100116.20;1763227;79;21025;-38
2022/01/08 02:12:51;;;;;;;10.03;6.58;;;;;;;-1.19;61.15;100114.89;1780302;80;21000;-39
2022/01/08 02:15:18;;;;;;;15.28;7.17;;;;;;;-1.32;61.05;100111.69;1791732;78;21067;-39
2022/01/08 02:17:45;;;;;;;10.43;6.53;;;;;;;-1.33;61.11;100113.27;1792228;78;21567;-38
2022/01/08 02:20:13;;;;;;;11.10;6.78;;;;;;;-1.37;61.09;100113.00;1775909;79;21550;-38
2022/01/08 02:22:39;;;;;;;10.43;6.67;;;;;;;-1.40;61.15;100110.05;1749963;80;21559;-38
2022/01/08 02:25:08;;;;;;;12.23;6.85;;;;;;;-1.44;61.30;100118.28;1768925;80;21546;-38
2022/01/08 02:27:35;;;;;;;11.12;6.58;;;;;;;-1.46;61.02;100124.41;1746210;82;22193;-38
2022/01/08 02:30:04;;;;;;;12.90;6.80;;;;;;;-1.55;61.14;100120.11;1745508;82;21143;-38
2022/01/08 02:32:31;;;;;;;12.53;6.95;;;;;;;-1.61;61.29;100114.52;1745981;82;21303;-38
2022/01/08 02:34:58;;;;;;;14.10;7.45;;;;;;;-1.68;61.43;100115.81;1785826;79;20989;-38
2022/01/08 02:37:29;;;;;;;11.83;7.22;;;;;;;-1.73;61.56;100105.95;1786806;79;21029;-38
2022/01/08 02:39:53;;;;;;;11.10;6.67;;;;;;;-1.77;61.85;100103.03;1746323;82;21068;-38
2022/01/08 02:42:19;;;;;;;12.50;7.35;;;;;;;-1.72;61.75;100098.27;1780496;80;21122;-38
2022/01/08 02:44:48;;;;;;;11.53;7.08;;;;;;;-1.69;61.62;100091.08;1779714;79;21045;-38
2022/01/08 02:47:16;;;;;;;13.93;7.50;;;;;;;-1.58;61.57;100095.91;1769345;80;21096;-39
2022/01/08 02:49:43;;;;;;;12.47;7.05;;;;;;;-1.52;61.25;100102.84;1799478;79;20997;-39
2022/01/08 02:52:10;;;;;;;15.43;7.45;;;;;;;-1.47;60.92;100095.69;1794647;79;20938;-38
2022/01/08 02:54:37;;;;;;;11.18;7.00;;;;;;;-1.50;60.93;100101.51;1800493;79;21147;-38
2022/01/08 02:57:05;;;;;;;12.70;7.50;;;;;;;-1.47;60.87;100097.02;1781220;79;21500;-39
2022/01/08 03:01:53;;;;;;;12.30;7.83;;;;;;;-1.39;60.49;100101.81;1810922;78;22633;-38
2022/01/08 03:04:20;;;;;;;12.58;7.17;;;;;;;-1.55;60.63;100106.81;1789483;79;20926;-37
2022/01/08 03:06:47;;;;;;;12.98;7.40;;;;;;;-1.57;60.61;100103.63;1803116;79;21137;-38
2022/01/08 03:09:13;;;;;;;10.18;6.87;;;;;;;-1.58;60.64;100107.34;1791195;79;20933;-38
2022/01/08 03:11:41;;;;;;;13.45;7.28;;;;;;;-1.55;60.50;100102.83;1787366;79;20972;-38
2022/01/08 03:14:08;;;;;;;11.97;7.28;;;;;;;-1.50;60.33;100102.06;1812123;79;21585;-37
2022/01/08 03:16:35;;;;;;;13.22;7.72;;;;;;;-1.48;60.22;100102.59;1799245;79;20945;-37
2022/01/08 03:19:09;;;;;;;11.12;6.58;;;;;;;-1.49;60.05;100106.30;1785612;79;21306;-37
2022/01/08 03:21:35;;;;;;;15.15;7.58;;;;;;;-1.55;60.08;100100.16;1785507;79;21776;-37
2022/01/08 03:24:01;;;;;;;14.40;7.70;;;;;;;-1.54;60.05;100100.97;1786143;79;20926;-37
2022/01/08 03:26:29;;;;;;;12.80;8.20;;;;;;;-1.55;60.07;100103.38;1786271;79;21542;-37
2022/01/08 03:28:56;;;;;;;12.15;6.85;;;;;;;-1.53;59.87;100106.56;1798822;79;21001;-37
2022/01/08 03:31:24;;;;;;;16.87;8.05;;;;;;;-1.56;59.83;100103.91;1807776;79;21135;-37
2022/01/08 03:33:51;;;;;;;14.65;7.42;;;;;;;-1.58;60.03;100102.03;1790351;79;21582;-38
2022/01/08 03:36:19;;;;;;;13.18;7.90;;;;;;;-1.59;60.00;100099.09;1802385;79;21067;-38
2022/01/08 03:38:46;;;;;;;13.62;7.50;;;;;;;-1.60;59.84;100089.55;1816309;79;20995;-37
2022/01/08 03:41:12;;;;;;;11.12;7.85;;;;;;;-1.64;59.92;100098.27;1813757;79;21055;-37
2022/01/08 03:43:39;;;;;;;13.70;7.85;;;;;;;-1.69;60.04;100092.97;1814110;79;21160;-37
2022/01/08 03:46:06;;;;;;;12.70;7.90;;;;;;;-1.73;60.31;100090.02;1786795;79;20954;-37
2022/01/08 03:48:45;;;;;;;12.80;7.53;;;;;;;-1.71;60.21;100091.09;1784383;79;21499;-37
2022/01/08 03:51:01;;;;;;;12.23;7.20;;;;;;;-1.74;59.97;100077.00;1807928;78;21542;-37
2022/01/08 03:53:28;;;;;;;11.08;7.15;;;;;;;-1.72;60.00;100069.02;1819008;78;21578;-37
2022/01/08 03:55:55;;;;;;;14.03;7.92;;;;;;;-1.69;60.10;100076.46;1816108;78;21199;-37
2022/01/08 03:58:22;;;;;;;14.00;7.75;;;;;;;-1.63;59.88;100080.74;1821707;78;21502;-37
2022/01/08 04:00:48;;;;;;;12.80;7.87;;;;;;;-1.65;59.60;100080.75;1805452;78;20906;-38
2022/01/08 04:03:18;;;;;;;12.07;7.92;;;;;;;-1.70;59.27;100086.05;1789021;79;21499;-38
2022/01/08 04:05:47;;;;;;;15.25;8.60;;;;;;;-1.79;59.26;100084.40;1785465;79;20964;-37
2022/01/08 04:08:15;;;;;;;14.38;8.33;;;;;;;-1.81;59.42;100082.55;1781311;80;21115;-38
2022/01/08 04:10:43;;;;;;;12.43;8.33;;;;;;;-1.82;59.48;100086.26;1785028;79;21508;-37
2022/01/08 04:13:22;;;;;;;18.75;9.25;;;;;;;-1.88;59.61;100087.29;1786810;79;20968;-37
2022/01/08 04:15:45;;;;;;;12.70;8.88;;;;;;;-2.05;60.06;100090.68;1784133;79;21084;-38
2022/01/08 04:18:11;;;;;;;16.67;8.65;;;;;;;-2.17;60.44;100102.03;1787412;79;21035;-38
2022/01/08 04:20:53;;;;;;;13.90;8.55;;;;;;;-2.27;60.74;100094.28;1779309;79;22164;-38
2022/01/08 04:23:10;;;;;;;13.68;8.80;;;;;;;-2.40;61.09;100088.10;1778407;80;21996;-37
2022/01/08 04:25:36;;;;;;;16.50;9.40;;;;;;;-2.40;61.25;100092.08;1782433;79;21008;-37
2022/01/08 04:28:04;;;;;;;15.55;9.55;;;;;;;-2.44;61.35;100090.20;1784046;79;21021;-37
2022/01/08 04:30:31;;;;;;;15.58;9.00;;;;;;;-2.48;61.50;100087.27;1782037;79;21531;-37
2022/01/08 04:32:57;;;;;;;14.65;9.15;;;;;;;-2.47;61.55;100094.15;1786560;80;21154;-37
2022/01/08 04:35:24;;;;;;;13.90;8.78;;;;;;;-2.50;61.55;100085.38;1786901;79;20957;-37
2022/01/08 04:37:50;;;;;;;15.00;8.35;;;;;;;-2.49;61.72;100094.95;1788311;79;21023;-37
2022/01/08 04:40:17;;;;;;;12.43;8.03;;;;;;;-2.43;61.59;100090.48;1787129;79;21010;-37
2022/01/08 04:42:44;;;;;;;14.15;9.23;;;;;;;-2.41;61.41;100081.19;1797097;79;21590;-37
2022/01/08 04:45:12;;;;;;;15.48;9.30;;;;;;;-2.39;61.41;100088.37;1795589;79;21082;-38
2022/01/08 04:47:41;;;;;;;10.60;6.40;;;;;;;-2.35;61.20;100088.13;1786109;79;20987;-37
2022/01/08 04:50:12;;;;;;;13.85;8.23;;;;;;;-2.38;61.16;100087.33;1787009;79;20981;-37
2022/01/08 04:52:40;;;;;;;14.85;8.63;;;;;;;-2.35;61.01;100088.13;1797092;79;21041;-37
2022/01/08 04:55:08;;;;;;;13.32;8.03;;;;;;;-2.40;60.98;100081.46;1791470;79;21064;-37
2022/01/08 04:57:34;;;;;;;16.70;8.30;;;;;;;-2.40;60.99;100085.45;1793943;79;21068;-37
2022/01/08 05:00:01;;;;;;;13.70;8.15;;;;;;;-2.40;60.92;100081.46;1786758;79;20992;-37
2022/01/08 05:02:28;;;;;;;14.90;8.35;;;;;;;-2.42;60.87;100084.89;1791542;78;20922;-37
2022/01/08 05:04:54;;;;;;;14.45;8.30;;;;;;;-2.41;60.81;100088.34;1803791;79;20960;-37
2022/01/08 05:07:21;;;;;;;12.93;7.60;;;;;;;-2.46;60.76;100083.81;1804132;79;21040;-37
2022/01/08 05:09:47;;;;;;;13.60;8.35;;;;;;;-2.45;60.85;100086.73;1797678;79;21100;-37
2022/01/08 05:12:14;;;;;;;13.90;8.28;;;;;;;-2.45;60.95;100090.72;1796325;78;22101;-37
2022/01/08 05:14:44;;;;;;;13.05;8.20;;;;;;;-2.39;60.83;100081.73;1800529;78;21516;-37
2022/01/08 05:17:14;;;;;;;15.05;7.90;;;;;;;-2.35;60.62;100082.02;1810371;79;21037;-37
2022/01/08 05:19:49;;;;;;;12.93;8.53;;;;;;;-2.33;60.49;100085.23;1789960;79;21015;-37
2022/01/08 05:22:22;;;;;;;11.65;7.53;;;;;;;-2.41;60.48;100085.69;1782843;79;21837;-37
2022/01/08 05:24:41;;;;;;;13.83;8.33;;;;;;;-2.45;60.52;100085.41;1785182;77;20933;-37
2022/01/08 05:27:10;;;;;;;14.47;8.80;;;;;;;-2.45;60.51;100083.28;1797757;78;20882;-37
2022/01/08 05:29:36;;;;;;;14.73;8.60;;;;;;;-2.45;60.62;100085.41;1811450;78;21018;-37
2022/01/08 05:32:04;;;;;;;13.28;8.18;;;;;;;-2.43;60.52;100085.97;1813106;79;21072;-37
2022/01/08 05:34:31;;;;;;;14.20;8.55;;;;;;;-2.42;60.53;100089.42;1813298;78;21748;-37
2022/01/08 05:36:58;;;;;;;13.25;7.45;;;;;;;-2.41;60.42;100089.15;1808998;79;21516;-37
2022/01/08 05:39:24;;;;;;;12.43;7.95;;;;;;;-2.40;60.33;100088.10;1812457;79;21017;-37
2022/01/08 05:41:51;;;;;;;11.65;7.35;;;;;;;-2.44;60.48;100092.33;1806494;78;20925;-38
2022/01/08 05:44:18;;;;;;;14.63;7.72;;;;;;;-2.41;60.38;100094.98;1787611;79;21000;-37
2022/01/08 05:46:46;;;;;;;11.35;7.42;;;;;;;-2.43;60.39;100101.09;1783354;79;21145;-37
2022/01/08 05:49:14;;;;;;;12.23;7.33;;;;;;;-2.42;60.36;100092.86;1767432;80;21837;-37
2022/01/08 05:51:41;;;;;;;12.13;7.47;;;;;;;-2.42;60.35;100099.48;1742190;82;20987;-37
2022/01/08 05:54:07;;;;;;;12.98;7.58;;;;;;;-2.36;60.04;100111.75;1749999;80;20988;-37
2022/01/08 05:56:34;;;;;;;12.07;7.10;;;;;;;-2.36;60.02;100106.44;1748443;82;21397;-37
2022/01/08 05:59:00;;;;;;;11.10;7.28;;;;;;;-2.36;59.88;100110.42;1754333;80;21088;-37
2022/01/08 06:01:27;;;;;;;12.55;7.22;;;;;;;-2.36;60.04;100107.77;1748305;81;21033;-37
2022/01/08 06:03:54;;;;;;;11.33;7.15;;;;;;;-2.32;59.90;100110.70;1742235;82;21127;-37
2022/01/08 06:06:21;;;;;;;12.37;7.22;;;;;;;-2.70;59.77;100044.91;1750584;81;21019;-37
2022/01/08 06:08:47;;;;;;;10.45;6.55;;;;;;;-2.26;59.70;100102.52;1788515;80;21043;-37
2022/01/08 06:11:14;;;;;;;13.00;6.80;;;;;;;-2.24;59.64;100107.59;1801094;78;21087;-37
2022/01/08 06:13:42;;;;;;;11.65;6.58;;;;;;;-2.24;59.52;100107.06;1796005;78;20893;-37
2022/01/08 06:16:08;;;;;;;11.22;6.85;;;;;;;-2.25;59.46;100109.44;1811407;78;20956;-37
2022/01/08 06:18:37;;;;;;;11.63;6.95;;;;;;;-2.18;59.41;100105.77;1801112;78;20978;-37
2022/01/08 06:21:04;;;;;;;11.08;6.87;;;;;;;-2.21;59.32;100109.19;1794938;78;21072;-37
2022/01/08 06:23:31;;;;;;;9.43;6.15;;;;;;;-2.18;59.46;100108.42;1815307;78;21853;-37
2022/01/08 06:25:58;;;;;;;11.22;6.70;;;;;;;-2.18;59.46;100103.91;1798702;78;20937;-37
2022/01/08 06:28:24;;;;;;;10.55;6.62;;;;;;;-2.13;59.35;100103.14;1807824;78;20972;-37
2022/01/08 06:30:52;;;;;;;10.20;6.87;;;;;;;-2.08;59.28;100099.18;1812166;78;21024;-37
2022/01/08 06:33:20;;;;;;;11.08;6.78;;;;;;;-2.04;59.09;100101.06;1806526;78;20986;-37
2022/01/08 06:35:47;;;;;;;12.55;6.95;;;;;;;-1.98;58.99;100105.84;1824651;78;21126;-37
2022/01/08 06:38:13;;;;;;;10.38;6.35;;;;;;;-1.98;58.85;100107.17;1826098;78;21011;-37
2022/01/08 06:40:40;;;;;;;10.32;7.15;;;;;;;-1.97;58.76;100102.94;1824712;78;21530;-37
2022/01/08 06:43:07;;;;;;;10.58;7.05;;;;;;;-1.96;58.63;100110.38;1807593;78;21020;-37
2022/01/08 06:45:34;;;;;;;12.93;6.55;;;;;;;-1.93;58.64;100112.52;1819191;78;21024;-37
2022/01/08 06:48:00;;;;;;;12.55;7.37;;;;;;;-1.84;58.44;100114.41;1824576;78;21080;-37
2022/01/08 06:50:28;;;;;;;10.10;6.20;;;;;;;-1.86;58.47;100108.58;1794568;80;21313;-37
2022/01/08 06:52:56;;;;;;;10.68;6.55;;;;;;;-1.85;58.49;100113.37;1794593;80;20975;-37
2022/01/08 06:55:22;;;;;;;10.70;6.60;;;;;;;-1.90;58.72;100118.66;1825475;78;21032;-37
2022/01/08 06:57:49;;;;;;;10.23;6.50;;;;;;;-1.92;58.80;100114.12;1804358;78;21053;-37
2022/01/08 07:00:15;;;;;;;9.80;6.00;;;;;;;-1.92;59.10;100119.43;1802346;78;21833;-37
2022/01/08 07:02:42;;;;;;;12.55;5.95;;;;;;;-1.86;59.23;100123.19;1799209;78;21287;-37
2022/01/08 07:05:10;;;;;;;9.35;5.67;;;;;;;-1.84;59.29;100125.60;1780282;79;21558;-37
2022/01/08 07:07:37;;;;;;;9.70;5.83;;;;;;;-1.85;59.36;100117.35;1775484;80;21020;-37
2022/01/08 07:10:05;;;;;;;10.35;5.90;;;;;;;-1.85;59.43;100121.34;1767778;80;21073;-37
2022/01/08 07:12:31;;;;;;;11.38;6.22;;;;;;;-1.83;59.66;100127.17;1779359;80;21132;-37
2022/01/08 07:14:58;;;;;;;12.73;6.40;;;;;;;-1.85;59.66;100126.66;1774889;80;21269;-37
2022/01/08 07:17:25;;;;;;;11.70;5.87;;;;;;;-1.84;59.73;100129.59;1779932;78;21008;-37
2022/01/08 07:19:52;;;;;;;9.23;5.87;;;;;;;-1.81;59.71;100129.86;1780919;80;20941;-38
2022/01/08 07:22:19;;;;;;;11.73;6.53;;;;;;;-1.85;59.88;100127.98;1781025;80;21000;-37
2022/01/08 07:24:45;;;;;;;11.12;6.40;;;;;;;-1.80;59.85;100124.83;1751064;81;21092;-37
2022/01/08 07:27:13;;;;;;;12.95;6.08;;;;;;;-1.78;59.95;100129.86;1793774;79;21836;-37
2022/01/08 07:29:40;;;;;;;9.60;6.17;;;;;;;-1.78;59.98;100125.34;1787987;79;20965;-37
2022/01/08 07:32:07;;;;;;;10.65;6.67;;;;;;;-1.77;59.78;100126.14;1741298;82;21561;-37
2022/01/08 07:34:34;;;;;;;10.82;6.42;;;;;;;-1.76;60.02;100119.78;1787325;79;21009;-37
2022/01/08 07:37:01;;;;;;;11.43;6.45;;;;;;;-1.74;60.07;100116.31;1769191;79;21158;-37
2022/01/08 07:39:28;;;;;;;9.70;5.90;;;;;;;-1.71;60.16;100119.00;1753165;79;20952;-39
2022/01/08 07:41:54;;;;;;;10.82;5.85;;;;;;;-1.69;60.09;100117.66;1765983;79;21077;-37
2022/01/08 07:44:21;;;;;;;10.68;6.60;;;;;;;-1.64;60.17;100116.36;1730170;82;21022;-37
2022/01/08 07:46:48;;;;;;;10.95;6.45;;;;;;;-1.55;59.98;100113.46;1770278;80;20990;-37
2022/01/08 07:49:14;;;;;;;12.47;7.08;;;;;;;-1.49;59.86;100111.09;1775271;80;21120;-37
2022/01/08 07:51:40;;;;;;;12.68;6.97;;;;;;;-1.41;59.52;100115.92;1786899;80;21570;-37
2022/01/08 07:54:07;;;;;;;13.60;7.47;;;;;;;-1.36;59.26;100119.13;1781461;80;21475;-37
2022/01/08 07:56:36;;;;;;;12.37;6.67;;;;;;;-1.28;59.48;100119.13;1781050;80;21622;-37
2022/01/08 07:59:02;;;;;;;12.00;6.55;;;;;;;-1.21;59.16;100109.82;1781197;80;21032;-37
2022/01/08 08:01:29;;;;;;;11.65;6.97;;;;;;;-1.17;58.59;100106.92;1778776;80;21150;-37
2022/01/08 08:03:56;;;;;;;11.93;7.17;;;;;;;-1.10;59.00;100107.45;1772937;79;20901;-37
2022/01/08 08:06:23;;;;;;;10.40;6.17;;;;;;;-0.98;58.85;100112.53;1791715;79;21115;-37
2022/01/08 08:08:50;;;;;;;11.25;6.97;;;;;;;-0.84;58.25;100113.61;1786425;79;20960;-37
2022/01/08 08:11:17;;;;;;;11.10;6.80;;;;;;;-0.69;58.07;100107.48;1804995;79;21076;-38
2022/01/08 08:13:43;;;;;;;14.15;7.08;;;;;;;-0.55;57.95;100105.34;1788312;79;21185;-37
2022/01/08 08:16:10;;;;;;;12.03;6.53;;;;;;;-0.35;57.41;100103.19;1800293;79;21060;-37
2022/01/08 08:18:37;;;;;;;11.55;7.47;;;;;;;-0.22;57.24;100101.29;1773234;79;20921;-38
2022/01/08 08:21:03;;;;;;;11.75;7.28;;;;;;;-0.06;57.04;100104.72;1773068;81;20961;-38
2022/01/08 08:23:30;;;;;;;11.22;6.75;;;;;;;0.09;56.19;100102.55;1773036;79;21050;-38
2022/01/08 08:25:57;;;;;;;12.90;6.85;;;;;;;0.19;56.54;100104.64;1785072;79;21125;-37
2022/01/08 08:28:24;;;;;;;13.30;6.83;;;;;;;0.30;55.70;100096.84;1784788;79;21012;-37
2022/01/08 08:30:50;;;;;;;11.90;6.80;;;;;;;0.39;55.56;100105.06;1786449;79;21024;-38
2022/01/08 08:33:17;;;;;;;10.25;6.53;;;;;;;0.47;55.65;100097.05;1772879;81;21113;-37
2022/01/08 08:35:43;;;;;;;11.75;6.85;;;;;;;0.53;55.20;100091.42;1791828;79;21539;-37
2022/01/08 08:38:10;;;;;;;13.18;6.53;;;;;;;0.62;55.39;100096.44;1773523;79;21779;-37
2022/01/08 08:40:37;;;;;;;11.12;6.42;;;;;;;0.76;54.70;100097.95;1781325;79;21000;-38
2022/01/08 08:43:04;;;;;;;9.33;5.75;;;;;;;0.85;54.84;100091.75;1786808;79;21052;-38
2022/01/08 08:45:30;;;;;;;8.70;5.60;;;;;;;1.00;54.63;100094.84;1782598;79;21044;-37
2022/01/08 08:47:57;;;;;;;11.08;5.47;;;;;;;1.13;53.88;100095.54;1780076;80;21078;-38
2022/01/08 08:50:24;;;;;;;10.40;5.72;;;;;;;1.20;54.30;100092.03;1772707;81;21142;-37
2022/01/08 08:52:52;;;;;;;9.55;5.70;;;;;;;1.39;54.10;100090.00;1778820;79;20925;-37
2022/01/08 08:55:19;;;;;;;10.32;5.78;;;;;;;1.52;53.03;100094.67;1789674;79;21017;-38
2022/01/08 08:57:46;;;;;;;9.18;5.58;;;;;;;1.59;53.11;100090.61;1788328;79;21472;-38
2022/01/08 09:00:14;;;;;;;10.23;5.90;;;;;;;1.64;52.59;100083.09;1790841;79;21532;-38
2022/01/08 09:02:41;;;;;;;9.30;5.67;;;;;;;1.71;52.59;100075.52;1797390;79;21145;-38
2022/01/08 09:05:09;;;;;;;7.87;5.20;;;;;;;1.77;52.45;100067.70;1787518;80;20976;-38
2022/01/08 09:07:36;;;;;;;13.85;5.33;;;;;;;1.82;51.71;100071.66;1781871;79;21019;-41
2022/01/08 09:10:05;;;;;;;10.38;5.28;;;;;;;1.86;51.94;100060.65;1780914;80;20970;-41
2022/01/08 09:12:33;;;;;;;7.95;5.03;;;;;;;1.95;51.74;100065.62;1782408;80;21020;-41
2022/01/08 09:14:59;;;;;;;9.30;4.90;;;;;;;2.02;51.35;100058.06;1781943;80;21108;-44
2022/01/08 09:17:28;;;;;;;8.13;5.17;;;;;;;2.09;51.33;100058.50;1780795;80;20972;-43
2022/01/08 09:19:55;;;;;;;7.62;4.25;;;;;;;2.21;50.90;100050.08;1781060;80;20957;-42
2022/01/08 09:22:21;;;;;;;6.60;4.40;;;;;;;2.21;49.63;100050.08;1778699;79;21091;-42
2022/01/08 09:24:49;;;;;;;7.83;4.20;;;;;;;2.20;48.87;100049.81;1746522;82;21036;-42
2022/01/08 09:27:16;;;;;;;6.30;3.90;;;;;;;2.16;49.63;100052.81;1780965;80;21182;-41
2022/01/08 09:29:42;;;;;;;6.28;3.75;;;;;;;2.14;48.91;100062.98;1775388;80;21054;-41
2022/01/08 09:32:09;;;;;;;7.67;3.92;;;;;;;2.11;48.38;100069.72;1760886;80;21023;-41
2022/01/08 09:34:36;;;;;;;7.08;4.37;;;;;;;2.13;49.20;100048.05;1758598;80;21358;-41
2022/01/08 09:37:05;;;;;;;5.65;4.22;;;;;;;2.14;49.04;100049.08;1780437;80;21085;-42
2022/01/08 09:39:33;;;;;;;6.87;3.80;;;;;;;2.19;49.06;100043.66;1780999;80;21901;-42
2022/01/08 09:41:59;;;;;;;6.28;3.42;;;;;;;2.21;48.80;100053.29;1778985;80;20957;-42
2022/01/08 09:44:26;;;;;;;6.75;3.80;;;;;;;2.13;47.81;100046.70;1781380;80;21016;-42
2022/01/08 09:46:53;;;;;;;6.22;3.92;;;;;;;2.05;47.83;100028.60;1780907;79;21037;-41
2022/01/08 09:49:19;;;;;;;5.97;3.85;;;;;;;1.97;48.17;100037.27;1781271;80;21009;-42
2022/01/08 09:51:46;;;;;;;6.60;4.05;;;;;;;1.93;48.24;100026.36;1781800;80;21154;-42
2022/01/08 09:54:12;;;;;;;5.92;3.80;;;;;;;1.93;49.00;100026.36;1781885;80;21019;-41
2022/01/08 09:56:39;;;;;;;6.90;3.70;;;;;;;2.04;48.94;100019.78;1780969;80;21512;-42
2022/01/08 09:59:06;;;;;;;4.85;3.37;;;;;;;2.16;49.29;100020.72;1781099;79;21515;-42
2022/01/08 10:01:35;;;;;;;5.50;3.72;;;;;;;2.32;47.62;100016.77;1777757;79;21022;-42
2022/01/08 10:04:05;;;;;;;6.40;3.42;;;;;;;2.48;47.12;100017.32;1783164;79;21480;-42
2022/01/08 10:06:35;;;;;;;5.37;3.62;;;;;;;2.56;46.17;100022.84;1775583;80;21012;-41
2022/01/08 10:09:05;;;;;;;6.72;3.60;;;;;;;2.61;46.24;100011.26;1749395;80;20993;-42
2022/01/08 10:11:31;;;;;;;6.78;3.55;;;;;;;2.59;45.84;99996.81;1750108;82;21009;-42
2022/01/08 10:14:05;;;;;;;6.78;3.83;;;;;;;2.44;45.69;100007.74;1755483;80;21036;-42
2022/01/08 10:19:23;;;;;;;7.42;4.50;;;;;;;2.09;47.23;99992.97;1779393;80;20968;-41
2022/01/08 10:21:51;;;;;;;5.92;3.90;;;;;;;2.03;46.70;99998.12;1781073;80;21003;-42
2022/01/08 10:24:27;;;;;;;7.17;3.70;;;;;;;2.08;47.31;100002.64;1780855;80;21084;-41
2022/01/08 10:27:03;;;;;;;6.05;3.92;;;;;;;2.21;47.93;100002.46;1781047;80;21024;-42
2022/01/08 10:29:30;;;;;;;6.28;4.08;;;;;;;2.36;47.59;100010.28;1781049;80;21843;-42
2022/01/08 10:31:58;;;;;;;5.90;4.42;;;;;;;2.44;46.82;99996.24;1780918;80;21008;-42
2022/01/08 10:34:28;;;;;;;7.00;3.90;;;;;;;2.47;46.74;99997.02;1780549;80;21051;-42
2022/01/08 10:37:04;;;;;;;6.45;3.98;;;;;;;2.53;46.96;99991.83;1769872;80;21021;-42
2022/01/08 10:39:38;;;;;;;6.30;4.00;;;;;;;2.62;47.09;99992.75;1781110;80;21020;-42
2022/01/08 10:42:14;;;;;;;7.62;4.55;;;;;;;2.77;46.99;99997.07;1766101;80;21115;-42
2022/01/08 10:44:43;;;;;;;6.28;4.12;;;;;;;2.89;45.90;99996.09;1750018;82;20933;-42
2022/01/08 10:47:18;;;;;;;8.28;4.12;;;;;;;2.99;45.98;99984.67;1770787;78;21839;-42
2022/01/08 10:50:00;;;;;;;5.83;3.80;;;;;;;3.05;44.88;99987.48;1774718;78;21033;-42
2022/01/08 10:52:27;;;;;;;5.55;3.50;;;;;;;3.13;45.39;99971.84;1806005;78;21024;-42
2022/01/08 10:54:59;;;;;;;6.25;3.47;;;;;;;3.26;44.56;99976.42;1812623;78;21274;-42
2022/01/08 10:57:35;;;;;;;5.72;3.60;;;;;;;3.39;44.66;99989.03;1758279;78;21009;-41
2022/01/08 11:00:08;;;;;;;4.40;3.05;;;;;;;3.42;44.37;99957.64;1743920;82;20986;-42
2022/01/08 11:02:35;;;;;;;5.30;3.22;;;;;;;3.47;45.13;99953.52;1764750;78;21021;-42
2022/01/08 11:05:06;;;;;;;4.42;3.00;;;;;;;3.60;44.80;99955.94;1793851;79;21003;-42
2022/01/08 11:07:35;;;;;;;6.78;3.08;;;;;;;3.75;44.71;99948.94;1780920;79;21126;-43
2022/01/08 11:10:08;;;;;;;5.08;3.10;;;;;;;3.99;44.12;99950.04;1791493;79;21024;-42
2022/01/08 11:12:42;;;;;;;5.40;3.15;;;;;;;4.14;42.87;99946.48;1804380;79;21068;-43
2022/01/08 11:17:54;;;;;;;4.53;2.83;;;;;;;3.99;42.43;99935.28;1798231;79;21484;-43
2022/01/08 11:20:25;;;;;;;5.05;2.92;;;;;;;3.90;43.09;99926.63;1767924;81;21300;-42
2022/01/08 11:22:56;;;;;;;5.10;3.30;;;;;;;3.82;43.34;99923.31;1772728;81;20991;-42
2022/01/08 11:25:26;;;;;;;4.75;2.90;;;;;;;3.73;43.34;99925.09;1800380;79;21000;-43
2022/01/08 11:28:14;;;;;;;5.45;3.20;;;;;;;3.60;43.75;99920.55;1769261;79;21013;-43
2022/01/08 11:30:50;;;;;;;5.90;3.40;;;;;;;3.49;44.12;99908.43;1727196;82;21048;-42
2022/01/08 11:33:27;;;;;;;4.00;3.00;;;;;;;3.42;43.73;99914.21;1769151;81;21085;-42
2022/01/08 11:35:51;;;;;;;9.60;3.22;;;;;;;3.40;44.23;99897.62;1732561;82;20946;-42
2022/01/08 11:38:21;;;;;;;4.92;2.98;;;;;;;3.41;44.72;99895.73;1746988;81;21516;-43
2022/01/08 11:40:49;;;;;;;7.28;3.27;;;;;;;3.49;44.17;99893.69;1732378;81;21067;-43
2022/01/08 11:43:22;;;;;;;5.28;2.90;;;;;;;3.35;43.91;99912.46;1741248;81;21096;-43
2022/01/08 11:45:59;;;;;;;4.97;3.25;;;;;;;3.17;44.36;99905.86;1738303;82;21126;-43
2022/01/08 11:48:39;;;;;;;4.87;3.08;;;;;;;3.08;44.65;99907.64;1736924;82;21036;-42
2022/01/08 11:51:06;;;;;;;;;;;;;;;2.95;44.70;99896.60;1749799;81;21054;-42
2022/01/08 11:53:47;;;;;;;4.58;3.30;;;;;;;2.81;45.07;99894.45;1751809;80;20126;-42